createdAt,value
2022-08-01T00:01:32.606Z,1.52
2022-08-01T00:04:00.880Z,1.35
2022-08-01T00:06:30.119Z,1.10
2022-08-01T00:08:58.407Z,1.50
2022-08-01T00:11:26.601Z,1.42
2022-08-01T00:13:56.265Z,1.40
2022-08-01T00:16:24.589Z,1.90
2022-08-01T00:18:53.252Z,1.65
2022-08-01T00:21:21.459Z,1.40
2022-08-01T00:23:49.942Z,1.63
2022-08-01T00:26:18.150Z,1.50
2022-08-01T00:28:46.388Z,1.50
2022-08-01T00:31:15.948Z,1.40
2022-08-01T00:33:44.179Z,1.50
2022-08-01T00:36:12.294Z,1.65
2022-08-01T00:38:40.525Z,1.40
2022-08-01T00:41:08.749Z,1.20
2022-08-01T00:43:36.909Z,1.15
2022-08-01T00:46:05.052Z,1.50
2022-08-01T00:48:34.688Z,1.38
2022-08-01T00:51:03.734Z,1.10
2022-08-01T00:53:52.006Z,1.17
2022-08-01T00:56:21.203Z,1.25
2022-08-01T00:58:50.414Z,1.10
2022-08-01T01:01:19.239Z,1.20
2022-08-01T01:04:08.327Z,1.13
2022-08-01T01:06:46.598Z,1.30
2022-08-01T01:09:33.141Z,1.10
2022-08-01T01:12:12.235Z,1.25
2022-08-01T01:14:47.531Z,0.90
2022-08-01T01:17:48.244Z,1.23
2022-08-01T01:20:13.902Z,0.98
2022-08-01T01:22:55.789Z,1.20
2022-08-01T01:25:39.812Z,1.08
2022-08-01T01:28:14.527Z,1.20
2022-08-01T01:30:48.571Z,1.10
2022-08-01T01:33:18.632Z,1.10
2022-08-01T01:35:52.524Z,1.10
2022-08-01T01:38:23.996Z,1.00
2022-08-01T01:40:54.829Z,1.33
2022-08-01T01:43:28.890Z,1.20
2022-08-01T01:46:05.600Z,1.30
2022-08-01T01:48:38.457Z,1.10
2022-08-01T01:51:07.120Z,1.40
2022-08-01T01:53:37.161Z,1.35
2022-08-01T01:56:05.539Z,1.15
2022-08-01T01:58:36.075Z,0.88
2022-08-01T02:01:14.498Z,1.00
2022-08-01T02:03:44.690Z,1.00
2022-08-01T02:06:16.552Z,1.10
2022-08-01T02:08:45.858Z,1.00
2022-08-01T02:11:23.279Z,1.00
2022-08-01T02:13:56.096Z,0.77
2022-08-01T02:16:29.844Z,0.80
2022-08-01T02:18:58.296Z,0.93
2022-08-01T02:21:31.798Z,1.00
2022-08-01T02:24:06.154Z,1.10
2022-08-01T02:26:35.486Z,1.08
2022-08-01T02:29:08.711Z,1.05
2022-08-01T02:31:45.875Z,0.88
2022-08-01T02:34:18.830Z,0.75
2022-08-01T02:36:48.691Z,0.70
2022-08-01T02:39:19.657Z,0.77
2022-08-01T02:41:52.062Z,0.85
2022-08-01T02:44:25.948Z,0.98
2022-08-01T02:47:03.081Z,0.70
2022-08-01T02:49:35.373Z,0.80
2022-08-01T02:52:07.245Z,0.90
2022-08-01T02:54:57.220Z,0.80
2022-08-01T02:57:33.593Z,0.73
2022-08-01T03:00:16.198Z,0.60
2022-08-01T03:02:46.586Z,1.00
2022-08-01T03:05:15.664Z,0.80
2022-08-01T03:07:44.175Z,0.90
2022-08-01T03:10:13.390Z,0.80
2022-08-01T03:12:42.494Z,0.75
2022-08-01T03:15:12.603Z,0.90
2022-08-01T03:17:44.990Z,0.98
2022-08-01T03:20:18.686Z,0.90
2022-08-01T03:22:48.787Z,0.60
2022-08-01T03:25:19.163Z,0.70
2022-08-01T03:27:53.683Z,0.68
2022-08-01T03:30:23.467Z,0.80
2022-08-01T03:32:51.665Z,0.60
2022-08-01T03:35:22.524Z,0.90
2022-08-01T03:38:15.181Z,0.80
2022-08-01T03:40:45.599Z,0.75
2022-08-01T03:43:21.054Z,0.77
2022-08-01T03:45:53.430Z,0.90
2022-08-01T03:48:26.644Z,0.93
2022-08-01T03:50:57.050Z,0.70
2022-08-01T03:53:28.791Z,1.00
2022-08-01T03:56:00.591Z,0.80
2022-08-01T03:58:29.958Z,0.90
2022-08-01T04:00:59.263Z,1.25
2022-08-01T04:03:28.562Z,1.20
2022-08-01T04:05:58.313Z,1.10
2022-08-01T04:08:36.729Z,1.13
2022-08-01T04:11:05.081Z,1.10
2022-08-01T04:13:36.747Z,1.10
2022-08-01T04:16:06.371Z,1.30
2022-08-01T04:18:34.516Z,1.25
2022-08-01T04:21:04.115Z,1.10
2022-08-01T04:23:33.611Z,1.02
2022-08-01T04:26:05.936Z,1.15
2022-08-01T04:28:38.017Z,1.00
2022-08-01T04:31:11.320Z,0.80
2022-08-01T04:33:42.370Z,1.10
2022-08-01T04:36:14.796Z,0.75
2022-08-01T04:38:47.229Z,0.82
2022-08-01T04:41:16.410Z,0.90
2022-08-01T04:43:45.035Z,0.93
2022-08-01T04:46:15.121Z,0.93
2022-08-01T04:48:44.125Z,0.90
2022-08-01T04:51:17.647Z,1.05
2022-08-01T04:53:47.392Z,0.85
2022-08-01T04:56:16.472Z,0.80
2022-08-01T04:58:45.781Z,0.90
2022-08-01T05:01:15.253Z,1.00
2022-08-01T05:03:43.904Z,1.13
2022-08-01T05:06:12.080Z,0.90
2022-08-01T05:08:42.366Z,0.85
2022-08-01T05:11:12.399Z,1.10
2022-08-01T05:13:41.733Z,0.90
2022-08-01T05:16:09.908Z,1.10
2022-08-01T05:18:38.189Z,0.80
2022-08-01T05:21:07.277Z,0.85
2022-08-01T05:23:43.294Z,0.90
2022-08-01T05:26:15.054Z,0.90
2022-08-01T05:28:43.952Z,1.30
2022-08-01T05:31:12.167Z,0.93
2022-08-01T05:33:40.421Z,1.00
2022-08-01T05:36:08.641Z,1.05
2022-08-01T05:38:36.869Z,1.05
2022-08-01T05:41:05.114Z,0.88
2022-08-01T05:43:34.672Z,1.00
2022-08-01T05:46:02.957Z,0.80
2022-08-01T05:48:31.313Z,0.98
2022-08-01T05:50:59.717Z,0.80
2022-08-01T05:53:28.377Z,0.90
2022-08-01T05:55:56.580Z,1.00
2022-08-01T05:58:24.910Z,0.90
2022-08-01T06:00:54.544Z,1.10
2022-08-01T06:03:22.670Z,1.08
2022-08-01T06:05:51.019Z,0.98
2022-08-01T06:08:19.224Z,1.13
2022-08-01T06:10:47.612Z,1.20
2022-08-01T06:13:15.913Z,1.15
2022-08-01T06:15:44.049Z,0.80
2022-08-01T06:18:13.665Z,1.05
2022-08-01T06:20:41.944Z,0.90
2022-08-01T06:23:28.508Z,1.00
2022-08-01T06:25:59.005Z,0.68
2022-08-01T06:28:27.248Z,1.10
2022-08-01T06:30:55.484Z,1.00
2022-08-01T06:33:24.997Z,1.00
2022-08-01T06:35:53.244Z,1.08
2022-08-01T06:38:21.504Z,0.88
2022-08-01T06:40:49.904Z,1.05
2022-08-01T06:43:19.650Z,1.13
2022-08-01T06:45:47.831Z,1.20
2022-08-01T06:48:15.982Z,0.95
2022-08-01T06:50:45.515Z,1.10
2022-08-01T06:53:13.693Z,1.17
2022-08-01T06:55:41.850Z,1.02
2022-08-01T06:58:10.147Z,0.95
2022-08-01T07:00:38.424Z,1.10
2022-08-01T07:03:06.816Z,1.30
2022-08-01T07:05:34.966Z,1.60
2022-08-01T07:08:04.584Z,1.48
2022-08-01T07:10:32.934Z,1.30
2022-08-01T07:13:01.169Z,1.38
2022-08-01T07:15:29.384Z,1.30
2022-08-01T07:17:58.226Z,1.30
2022-08-01T07:20:26.486Z,1.35
2022-08-01T07:22:54.546Z,1.13
2022-08-01T07:25:26.194Z,1.10
2022-08-01T07:27:54.325Z,1.38
2022-08-01T07:30:22.599Z,1.38
2022-08-01T07:32:51.031Z,1.40
2022-08-01T07:35:19.321Z,1.27
2022-08-01T07:37:49.024Z,1.40
2022-08-01T07:40:19.163Z,1.15
2022-08-01T07:42:48.933Z,1.50
2022-08-01T07:45:17.402Z,1.33
2022-08-01T07:47:46.152Z,1.35
2022-08-01T07:50:14.640Z,1.40
2022-08-01T07:52:42.879Z,1.20
2022-08-01T07:55:11.887Z,1.20
2022-08-01T07:57:45.099Z,1.10
2022-08-01T08:00:15.568Z,1.27
2022-08-01T08:02:43.858Z,1.17
2022-08-01T08:05:12.065Z,1.40
2022-08-01T08:07:40.491Z,1.50
2022-08-01T08:10:09.655Z,1.40
2022-08-01T08:12:37.781Z,1.38
2022-08-01T08:15:07.595Z,1.33
2022-08-01T08:17:37.208Z,1.15
2022-08-01T08:20:09.183Z,1.02
2022-08-01T08:22:38.901Z,1.30
2022-08-01T08:25:08.418Z,1.20
2022-08-01T08:27:37.596Z,1.23
2022-08-01T08:30:08.651Z,1.20
2022-08-01T08:32:38.564Z,1.08
2022-08-01T08:35:08.223Z,1.38
2022-08-01T08:37:47.266Z,1.48
2022-08-01T08:40:17.723Z,1.27
2022-08-01T08:42:47.789Z,1.40
2022-08-01T08:45:15.927Z,1.40
2022-08-01T08:47:47.922Z,1.30
2022-08-01T08:50:16.513Z,1.40
2022-08-01T08:52:47.073Z,1.17
2022-08-01T08:55:17.666Z,1.27
2022-08-01T08:57:48.718Z,1.40
2022-08-01T09:00:17.474Z,1.20
2022-08-01T09:02:49.914Z,1.35
2022-08-01T09:05:20.121Z,1.40
2022-08-01T09:07:48.494Z,1.15
2022-08-01T09:10:16.593Z,1.30
2022-08-01T09:13:11.730Z,1.48
2022-08-01T09:15:41.568Z,1.40
2022-08-01T09:18:27.212Z,1.23
2022-08-01T09:21:10.261Z,1.30
2022-08-01T09:23:53.817Z,1.25
2022-08-01T09:26:31.458Z,1.30
2022-08-01T09:29:01.238Z,1.17
2022-08-01T09:31:37.864Z,1.27
2022-08-01T09:34:10.139Z,1.50
2022-08-01T09:36:54.172Z,1.17
2022-08-01T09:39:25.131Z,1.52
2022-08-01T09:41:55.026Z,1.20
2022-08-01T09:44:44.073Z,1.23
2022-08-01T09:47:15.809Z,1.20
2022-08-01T09:49:50.962Z,1.17
2022-08-01T09:52:25.996Z,1.10
2022-08-01T09:54:59.080Z,1.40
2022-08-01T09:57:27.749Z,1.30
2022-08-01T10:00:00.393Z,1.50
2022-08-01T10:02:32.928Z,2.20
2022-08-01T10:05:08.404Z,1.15
2022-08-01T10:07:43.568Z,1.10
2022-08-01T10:10:14.537Z,1.30
2022-08-01T10:12:45.705Z,1.20
2022-08-01T10:15:18.057Z,1.20
2022-08-01T10:17:57.353Z,1.50
2022-08-01T10:20:30.802Z,1.30
2022-08-01T10:23:06.298Z,1.30
2022-08-01T10:25:44.023Z,1.38
2022-08-01T10:28:21.614Z,1.25
2022-08-01T10:30:53.563Z,1.42
2022-08-01T10:33:51.898Z,1.38
2022-08-01T10:36:14.780Z,1.15
2022-08-01T10:38:45.256Z,1.40
2022-08-01T10:41:16.597Z,1.20
2022-08-01T10:43:47.032Z,1.27
2022-08-01T10:46:15.881Z,1.20
2022-08-01T10:48:53.100Z,1.58
2022-08-01T10:51:27.064Z,1.10
2022-08-01T10:54:12.845Z,1.05
2022-08-01T10:56:44.673Z,1.30
2022-08-01T10:59:49.170Z,1.30
2022-08-01T11:02:10.230Z,1.00
2022-08-01T11:04:53.289Z,1.10
2022-08-01T11:07:26.256Z,0.93
2022-08-01T11:10:14.545Z,1.23
2022-08-01T11:12:45.279Z,1.85
2022-08-01T11:15:30.023Z,1.20
2022-08-01T11:18:01.095Z,1.00
2022-08-01T11:20:32.154Z,0.90
2022-08-01T11:23:36.211Z,0.90
2022-08-01T11:26:29.448Z,1.10
2022-08-01T11:29:22.433Z,1.27
2022-08-01T11:31:52.828Z,0.88
2022-08-01T11:34:21.695Z,1.10
2022-08-01T11:36:59.225Z,0.80
2022-08-01T11:39:29.599Z,0.90
2022-08-01T11:42:17.969Z,0.90
2022-08-01T11:44:53.285Z,0.85
2022-08-01T11:47:49.938Z,1.20
2022-08-01T11:50:37.959Z,1.02
2022-08-01T11:53:09.124Z,0.95
2022-08-01T11:55:47.685Z,0.80
2022-08-01T11:58:29.311Z,0.95
2022-08-01T12:01:00.762Z,1.10
2022-08-01T12:03:33.854Z,1.00
2022-08-01T12:06:02.867Z,1.10
2022-08-01T12:08:33.823Z,0.95
2022-08-01T12:11:06.839Z,1.10
2022-08-01T12:13:44.145Z,0.90
2022-08-01T12:16:13.059Z,0.93
2022-08-01T12:18:42.261Z,0.98
2022-08-01T12:21:10.992Z,1.00
2022-08-01T12:23:39.343Z,1.10
2022-08-01T12:26:08.987Z,1.02
2022-08-01T12:28:57.218Z,1.00
2022-08-01T12:31:33.726Z,1.00
2022-08-01T12:34:28.737Z,1.10
2022-08-01T12:36:57.873Z,1.00
2022-08-01T12:39:32.706Z,1.00
2022-08-01T12:42:02.492Z,1.00
2022-08-01T12:44:32.748Z,1.00
2022-08-01T12:47:02.901Z,0.90
2022-08-01T12:49:31.618Z,1.10
2022-08-01T12:52:00.299Z,0.90
2022-08-01T12:54:28.489Z,1.10
2022-08-01T12:56:58.013Z,0.95
2022-08-01T12:59:29.955Z,1.00
2022-08-01T13:01:59.576Z,0.80
2022-08-01T13:04:27.984Z,1.00
2022-08-01T13:06:56.438Z,1.10
2022-08-01T13:09:24.714Z,0.90
2022-08-01T13:12:06.464Z,1.00
2022-08-01T13:14:36.725Z,1.00
2022-08-01T13:17:10.131Z,1.05
2022-08-01T13:19:48.124Z,1.15
2022-08-01T13:22:16.450Z,0.90
2022-08-01T13:24:44.642Z,0.93
2022-08-01T13:27:24.196Z,1.10
2022-08-01T13:29:54.340Z,0.80
2022-08-01T13:32:29.713Z,1.20
2022-08-01T13:35:03.859Z,0.93
2022-08-01T13:37:32.378Z,0.80
2022-08-01T13:40:00.854Z,1.05
2022-08-01T13:42:32.862Z,1.20
2022-08-01T13:45:02.840Z,0.80
2022-08-01T13:47:32.518Z,0.80
2022-08-01T13:50:03.796Z,0.80
2022-08-01T13:52:32.819Z,0.90
2022-08-01T13:55:01.253Z,1.10
2022-08-01T13:57:36.344Z,1.00
2022-08-01T14:00:09.599Z,0.80
2022-08-01T14:02:40.252Z,1.08
2022-08-01T14:05:09.071Z,1.10
2022-08-01T14:07:38.215Z,1.02
2022-08-01T14:10:18.698Z,0.93
2022-08-01T14:12:48.571Z,0.95
2022-08-01T14:15:38.245Z,1.02
2022-08-01T14:18:07.800Z,0.98
2022-08-01T14:20:39.017Z,0.70
2022-08-01T14:23:09.035Z,0.98
2022-08-01T14:26:00.405Z,1.10
2022-08-01T14:28:28.788Z,0.90
2022-08-01T14:30:58.925Z,0.90
2022-08-01T14:33:27.767Z,0.90
2022-08-01T14:36:06.026Z,1.02
2022-08-01T14:38:46.230Z,1.00
2022-08-01T14:41:15.250Z,1.10
2022-08-01T14:43:43.624Z,1.20
2022-08-01T14:46:13.915Z,1.30
2022-08-01T14:48:42.619Z,1.00
2022-08-01T14:51:11.056Z,1.30
2022-08-01T14:53:40.327Z,1.10
2022-08-01T14:56:12.331Z,0.80
2022-08-01T14:58:40.483Z,1.00
2022-08-01T15:01:08.818Z,1.10
2022-08-01T15:03:38.446Z,1.00
2022-08-01T15:06:07.467Z,0.90
2022-08-01T15:08:35.830Z,1.10
2022-08-01T15:11:04.014Z,0.93
2022-08-01T15:13:32.162Z,1.08
2022-08-01T15:16:00.608Z,0.98
2022-08-01T15:18:29.434Z,0.80
2022-08-01T15:20:59.183Z,1.00
2022-08-01T15:23:27.333Z,1.38
2022-08-01T15:25:55.523Z,1.17
2022-08-01T15:28:23.629Z,1.05
2022-08-01T15:30:51.822Z,1.20
2022-08-01T15:33:22.167Z,1.55
2022-08-01T15:35:50.365Z,2.42
2022-08-01T15:38:23.393Z,2.83
2022-08-01T15:40:51.528Z,2.50
2022-08-01T15:43:19.888Z,2.38
2022-08-01T15:45:49.643Z,2.03
2022-08-01T15:48:18.465Z,1.75
2022-08-01T15:50:46.813Z,1.40
2022-08-01T15:53:15.505Z,1.70
2022-08-01T15:55:52.492Z,2.35
2022-08-01T15:58:21.558Z,2.00
2022-08-01T16:00:50.289Z,2.17
2022-08-01T16:03:18.712Z,2.00
2022-08-01T16:05:46.959Z,2.35
2022-08-01T16:08:15.911Z,1.90
2022-08-01T16:10:45.433Z,1.85
2022-08-01T16:13:13.634Z,2.00
2022-08-01T16:15:42.310Z,2.10
2022-08-01T16:18:13.722Z,2.00
2022-08-01T16:20:45.396Z,1.90
2022-08-01T16:23:15.570Z,1.70
2022-08-01T16:25:45.245Z,1.80
2022-08-01T16:28:14.504Z,1.90
2022-08-01T16:30:50.912Z,2.00
2022-08-01T16:33:40.434Z,2.50
2022-08-01T16:36:18.115Z,3.03
2022-08-01T16:38:46.948Z,3.05
2022-08-01T16:41:19.489Z,3.40
2022-08-01T16:43:53.802Z,4.13
2022-08-01T16:46:24.990Z,3.45
2022-08-01T16:48:53.972Z,3.58
2022-08-01T16:51:22.448Z,3.42
2022-08-01T16:53:50.828Z,3.22
2022-08-01T16:56:21.375Z,3.33
2022-08-01T16:58:49.745Z,3.30
2022-08-01T17:01:59.616Z,2.92
2022-08-01T17:04:07.908Z,3.38
2022-08-01T17:06:36.150Z,3.00
2022-08-01T17:09:04.828Z,2.88
2022-08-01T17:11:34.513Z,3.30
2022-08-01T17:14:02.709Z,6.13
2022-08-01T17:16:30.865Z,4.20
2022-08-01T17:18:59.051Z,3.85
2022-08-01T17:21:27.798Z,3.90
2022-08-01T17:23:56.277Z,4.15
2022-08-01T17:26:24.528Z,3.72
2022-08-01T17:28:54.175Z,3.95
2022-08-01T17:31:22.369Z,3.47
2022-08-01T17:33:54.791Z,3.80
2022-08-01T17:36:23.766Z,3.58
2022-08-01T17:38:51.988Z,3.67
2022-08-01T17:41:20.193Z,3.65
2022-08-01T17:43:48.394Z,4.50
2022-08-01T17:46:18.400Z,5.25
2022-08-01T17:48:46.729Z,5.22
2022-08-01T17:51:19.382Z,5.35
2022-08-01T17:53:55.772Z,4.97
2022-08-01T17:56:26.499Z,5.75
2022-08-01T17:58:55.041Z,5.40
2022-08-01T18:01:26.903Z,4.80
2022-08-01T18:03:57.458Z,5.10
2022-08-01T18:06:27.265Z,5.07
2022-08-01T18:08:59.525Z,4.57
2022-08-01T18:11:28.147Z,4.65
2022-08-01T18:13:57.100Z,15.32
2022-08-01T18:16:29.395Z,4.95
2022-08-01T18:18:57.590Z,4.53
2022-08-01T18:21:26.039Z,3.83
2022-08-01T18:23:54.239Z,4.75
2022-08-01T18:26:23.161Z,4.70
2022-08-01T18:28:51.558Z,4.88
2022-08-01T18:31:20.583Z,5.15
2022-08-01T18:33:50.427Z,4.93
2022-08-01T18:36:31.819Z,4.38
2022-08-01T18:39:04.673Z,4.85
2022-08-01T18:41:34.235Z,4.25
2022-08-01T18:44:04.275Z,4.82
2022-08-01T18:46:37.976Z,4.65
2022-08-01T18:49:10.071Z,4.18
2022-08-01T18:51:43.936Z,4.70
2022-08-01T18:54:13.198Z,4.47
2022-08-01T18:56:42.180Z,4.30
2022-08-01T18:59:10.683Z,4.70
2022-08-01T19:01:39.814Z,5.63
2022-08-01T19:04:09.717Z,3.75
2022-08-01T19:06:38.732Z,4.60
2022-08-01T19:09:09.359Z,5.38
2022-08-01T19:11:37.792Z,4.65
2022-08-01T19:14:06.136Z,5.70
2022-08-01T19:16:34.974Z,5.05
2022-08-01T19:19:06.874Z,3.80
2022-08-01T19:21:40.268Z,3.60
2022-08-01T19:24:23.136Z,3.30
2022-08-01T19:26:54.703Z,3.67
2022-08-01T19:29:24.378Z,3.67
2022-08-01T19:32:06.249Z,3.13
2022-08-01T19:34:37.468Z,3.60
2022-08-01T19:37:08.166Z,3.65
2022-08-01T19:39:36.659Z,4.97
2022-08-01T19:42:05.592Z,4.80
2022-08-01T19:44:34.659Z,4.85
2022-08-01T19:47:03.551Z,4.40
2022-08-01T19:49:31.901Z,3.92
2022-08-01T19:52:02.283Z,3.78
2022-08-01T19:54:36.390Z,4.32
2022-08-01T19:57:07.028Z,4.38
2022-08-01T19:59:37.272Z,4.90
2022-08-01T20:02:06.373Z,4.28
2022-08-01T20:04:36.232Z,4.93
2022-08-01T20:07:04.875Z,5.00
2022-08-01T20:09:35.306Z,4.63
2022-08-01T20:12:04.230Z,5.38
2022-08-01T20:14:32.746Z,6.22
2022-08-01T20:17:01.562Z,6.05
2022-08-01T20:19:30.572Z,5.85
2022-08-01T20:22:03.538Z,5.97
2022-08-01T20:24:41.060Z,5.45
2022-08-01T20:27:12.609Z,5.25
2022-08-01T20:29:41.329Z,5.60
2022-08-01T20:32:10.623Z,5.60
2022-08-01T20:34:40.265Z,5.40
2022-08-01T20:37:12.891Z,5.30
2022-08-01T20:39:45.256Z,5.10
2022-08-01T20:42:14.743Z,5.10
2022-08-01T20:44:45.296Z,5.75
2022-08-01T20:47:15.253Z,5.30
2022-08-01T20:49:45.462Z,5.75
2022-08-01T20:52:15.550Z,5.70
2022-08-01T20:54:45.089Z,5.72
2022-08-01T20:57:20.318Z,5.95
2022-08-01T20:59:57.278Z,5.65
2022-08-01T21:02:38.521Z,6.10
2022-08-01T21:05:10.778Z,6.43
2022-08-01T21:07:43.928Z,6.25
2022-08-01T21:10:16.195Z,5.55
2022-08-01T21:12:49.390Z,5.72
2022-08-01T21:15:27.473Z,5.95
2022-08-01T21:18:01.710Z,5.18
2022-08-01T21:20:32.023Z,5.47
2022-08-01T21:23:15.852Z,5.63
2022-08-01T21:25:45.624Z,5.70
2022-08-01T21:28:15.573Z,5.07
2022-08-01T21:30:55.612Z,5.90
2022-08-01T21:33:30.217Z,4.88
2022-08-01T21:36:06.153Z,5.05
2022-08-01T21:38:36.914Z,5.10
2022-08-01T21:41:08.971Z,5.28
2022-08-01T21:43:38.768Z,5.20
2022-08-01T21:46:06.936Z,5.00
2022-08-01T21:48:36.547Z,5.15
2022-08-01T21:51:10.996Z,5.30
2022-08-01T21:53:50.286Z,4.55
2022-08-01T21:56:30.910Z,5.22
2022-08-01T21:59:04.917Z,5.13
2022-08-01T22:01:49.999Z,5.10
2022-08-01T22:04:29.391Z,5.45
2022-08-01T22:07:00.029Z,4.63
2022-08-01T22:09:29.784Z,5.13
2022-08-01T22:12:03.996Z,5.03
2022-08-01T22:14:34.512Z,4.18
2022-08-01T22:17:02.919Z,3.90
2022-08-01T22:19:44.162Z,3.85
2022-08-01T22:22:45.383Z,4.18
2022-08-01T22:25:04.718Z,3.83
2022-08-01T22:28:05.651Z,4.22
2022-08-01T22:30:24.706Z,4.10
2022-08-01T22:33:07.522Z,3.78
2022-08-01T22:35:45.108Z,3.92
2022-08-01T22:38:13.385Z,4.00
2022-08-01T22:40:48.374Z,3.80
2022-08-01T22:43:26.134Z,3.83
2022-08-01T22:46:08.221Z,3.75
2022-08-01T22:48:42.562Z,2.80
2022-08-01T22:51:22.452Z,3.00
2022-08-01T22:53:57.350Z,2.83
2022-08-01T22:56:25.661Z,2.70
2022-08-01T22:58:57.873Z,2.90
2022-08-01T23:01:29.614Z,2.70
2022-08-01T23:04:00.211Z,2.70
2022-08-01T23:06:37.791Z,2.65
2022-08-01T23:09:07.965Z,2.50
2022-08-01T23:11:37.402Z,2.60
2022-08-01T23:14:07.044Z,3.00
2022-08-01T23:16:37.882Z,2.78
2022-08-01T23:19:06.172Z,2.53
2022-08-01T23:21:38.726Z,2.78
2022-08-01T23:24:10.773Z,2.60
2022-08-01T23:26:39.243Z,2.53
2022-08-01T23:29:09.885Z,2.75
2022-08-01T23:31:58.215Z,2.80
2022-08-01T23:34:26.264Z,2.78
2022-08-01T23:36:54.535Z,2.30
2022-08-01T23:39:22.705Z,2.30
2022-08-01T23:41:57.583Z,2.20
2022-08-01T23:44:28.315Z,2.50
2022-08-01T23:46:56.560Z,2.60
2022-08-01T23:49:24.929Z,2.25
2022-08-01T23:51:53.268Z,2.22
2022-08-01T23:54:21.541Z,2.28
2022-08-01T23:56:49.970Z,2.38
2022-08-01T23:59:18.292Z,2.45
